Time,TemperatureF,DewpointF,PressureIn,WindDirection,WindDirectionDegrees,WindSpeedMPH,WindSpeedGustMPH,Humidity,HourlyPrecipIn,Conditions,Clouds,dailyrainin,SoftwareType,DateUTC
2013-04-25 00:03:00,43.0,42.0,30.21,WSW,255,0.0,0.0,98,0.00,,,0.00,,2013-04-25 04:03:00,
2013-04-25 00:12:00,43.0,42.0,30.21,WSW,255,0.0,0.0,98,0.00,,,0.00,,2013-04-25 04:12:00,
2013-04-25 00:23:00,43.0,42.0,30.21,WSW,255,0.0,0.0,98,0.00,,,0.00,,2013-04-25 04:23:00,
2013-04-25 00:32:00,43.0,42.0,30.22,WSW,255,0.0,0.0,98,0.00,,,0.25,,2013-04-25 04:32:00,
2013-04-25 00:43:00,43.0,42.0,30.22,WSW,255,0.0,0.0,98,0.00,,,0.25,,2013-04-25 04:43:00,
2013-04-25 00:52:00,43.0,42.0,30.22,WSW,255,0.0,0.0,98,0.00,,,0.25,,2013-04-25 04:52:00,
2013-04-25 01:03:00,43.0,42.0,30.22,WSW,255,0.0,0.0,98,0.00,,,0.25,,2013-04-25 05:03:00,
2013-04-25 01:12:00,43.0,42.0,30.22,WSW,255,0.0,0.0,98,0.00,,,0.25,,2013-04-25 05:12:00,
2013-04-25 01:22:00,43.0,43.0,30.23,WSW,255,0.0,0.0,99,0.00,,,0.25,,2013-04-25 05:22:00,
2013-04-25 01:32:00,43.0,42.0,30.23,WSW,255,0.0,0.0,98,0.00,,,0.25,,2013-04-25 05:32:00,
2013-04-25 01:42:00,43.0,42.0,30.23,WSW,255,0.0,0.0,98,0.00,,,0.25,,2013-04-25 05:42:00,
2013-04-25 01:52:00,43.0,43.0,30.23,WSW,255,0.0,0.0,99,0.00,,,0.25,,2013-04-25 05:52:00,
2013-04-25 02:02:00,42.0,42.0,30.23,WSW,255,0.0,0.0,99,0.00,,,0.25,,2013-04-25 06:02:00,
2013-04-25 02:12:00,42.0,42.0,30.23,WSW,255,0.0,0.0,99,0.00,,,0.25,,2013-04-25 06:12:00,
2013-04-25 02:22:00,42.0,41.0,30.23,WSW,255,0.0,0.0,98,0.00,,,0.25,,2013-04-25 06:22:00,
2013-04-25 02:32:00,42.0,42.0,30.23,WSW,255,0.0,0.0,99,0.00,,,0.25,,2013-04-25 06:32:00,
2013-04-25 02:42:00,42.0,42.0,30.23,WSW,255,0.0,0.0,99,0.00,,,0.25,,2013-04-25 06:42:00,
2013-04-25 02:52:00,42.0,41.0,30.23,WSW,255,0.0,0.0,98,0.00,,,0.25,,2013-04-25 06:52:00,
2013-04-25 03:02:00,42.0,41.0,30.23,WSW,255,0.0,0.0,98,0.00,,,0.25,,2013-04-25 07:02:00,
2013-04-25 03:12:00,42.0,41.0,30.23,WSW,255,0.0,0.0,97,0.00,,,0.25,,2013-04-25 07:12:00,
2013-04-25 03:22:00,42.0,41.0,30.23,WSW,255,0.0,0.0,97,0.00,,,0.25,,2013-04-25 07:22:00,
2013-04-25 03:32:00,42.0,41.0,30.22,WSW,255,0.0,0.0,98,0.00,,,0.25,,2013-04-25 07:32:00,
2013-04-25 03:42:00,42.0,41.0,30.22,WSW,255,0.0,0.0,98,0.00,,,0.25,,2013-04-25 07:42:00,
2013-04-25 03:52:00,41.0,40.0,30.22,WSW,255,0.0,0.0,98,0.00,,,0.25,,2013-04-25 07:52:00,
2013-04-25 04:02:00,41.0,40.0,30.22,WSW,255,0.0,0.0,98,0.00,,,0.25,,2013-04-25 08:02:00,
2013-04-25 04:11:00,41.0,40.0,30.22,WSW,255,0.0,0.0,98,0.00,,,0.25,,2013-04-25 08:11:00,
2013-04-25 04:21:00,41.0,40.0,30.22,WSW,255,0.0,0.0,98,0.00,,,0.25,,2013-04-25 08:21:00,
2013-04-25 04:32:00,40.0,39.0,30.22,WSW,255,0.0,0.0,98,0.00,,,0.25,,2013-04-25 08:32:00,
2013-04-25 04:42:00,40.0,39.0,30.22,WSW,255,0.0,0.0,98,0.00,,,0.25,,2013-04-25 08:42:00,
2013-04-25 04:52:00,40.0,40.0,30.22,WSW,255,0.0,0.0,99,0.00,,,0.25,,2013-04-25 08:52:00,
2013-04-25 05:01:00,39.0,39.0,30.22,WSW,255,0.0,0.0,99,0.00,,,0.25,,2013-04-25 09:01:00,
2013-04-25 05:11:00,39.0,39.0,30.22,WSW,255,0.0,0.0,99,0.00,,,0.25,,2013-04-25 09:11:00,
2013-04-25 05:21:00,39.0,39.0,30.22,WSW,255,0.0,0.0,99,0.00,,,0.25,,2013-04-25 09:21:00,
2013-04-25 05:33:00,39.0,39.0,30.22,WSW,255,0.0,0.0,99,0.00,,,0.25,,2013-04-25 09:33:00,
2013-04-25 05:42:00,39.0,39.0,30.22,WSW,255,0.0,0.0,99,0.00,,,0.25,,2013-04-25 09:42:00,
2013-04-25 05:53:00,38.0,38.0,30.22,WSW,255,0.0,0.0,100,0.00,,,0.25,,2013-04-25 09:53:00,
2013-04-25 06:02:00,38.0,38.0,30.22,WSW,255,0.0,0.0,100,0.00,,,0.25,,2013-04-25 10:02:00,
2013-04-25 06:12:00,38.0,38.0,30.22,WSW,255,0.0,0.0,100,0.00,,,0.25,,2013-04-25 10:12:00,
2013-04-25 06:22:00,38.0,38.0,30.23,WSW,255,0.0,0.0,100,0.00,,,0.25,,2013-04-25 10:22:00,
2013-04-25 06:32:00,38.0,38.0,30.23,WSW,255,0.0,0.0,100,0.00,,,0.25,,2013-04-25 10:32:00,
2013-04-25 06:42:00,38.0,38.0,30.23,WSW,255,0.0,0.0,100,0.00,,,0.25,,2013-04-25 10:42:00,
2013-04-25 06:53:00,38.0,38.0,30.24,WSW,255,0.0,0.0,100,0.00,,,0.25,,2013-04-25 10:53:00,
2013-04-25 07:02:00,37.0,37.0,30.24,West,267,0.0,0.0,100,0.00,,,0.25,,2013-04-25 11:02:00,
2013-04-25 07:12:00,37.0,37.0,30.24,West,267,0.0,0.0,100,0.00,,,0.25,,2013-04-25 11:12:00,
2013-04-25 07:22:00,37.0,37.0,30.25,West,267,0.0,0.0,100,0.00,,,0.25,,2013-04-25 11:22:00,
2013-04-25 07:32:00,37.0,37.0,30.26,West,267,0.0,0.0,100,0.00,,,0.25,,2013-04-25 11:32:00,
2013-04-25 07:42:00,37.0,37.0,30.26,West,267,0.0,0.0,100,0.00,,,0.25,,2013-04-25 11:42:00,
2013-04-25 07:52:00,38.0,38.0,30.27,West,267,0.0,0.0,100,0.00,,,0.25,,2013-04-25 11:52:00,
2013-04-25 08:01:00,38.0,38.0,30.27,West,267,0.0,0.0,100,0.00,,,0.25,,2013-04-25 12:01:00,
2013-04-25 08:12:00,38.0,38.0,30.27,West,267,0.0,0.0,100,0.00,,,0.25,,2013-04-25 12:12:00,
2013-04-25 08:21:00,38.0,38.0,30.27,West,267,0.0,0.0,100,0.00,,,0.25,,2013-04-25 12:21:00,
2013-04-25 08:32:00,39.0,39.0,30.27,West,267,0.0,0.0,99,0.00,,,0.25,,2013-04-25 12:32:00,
2013-04-25 08:42:00,39.0,39.0,30.27,West,267,0.0,0.0,99,0.00,,,0.25,,2013-04-25 12:42:00,
2013-04-25 08:52:00,41.0,40.0,30.27,West,267,0.0,0.0,98,0.00,,,0.25,,2013-04-25 12:52:00,
2013-04-25 09:02:00,42.0,41.0,30.28,West,267,0.0,0.0,95,0.00,,,0.25,,2013-04-25 13:02:00,
2013-04-25 09:11:00,42.0,41.0,30.28,West,267,0.0,0.0,95,0.00,,,0.25,,2013-04-25 13:11:00,
2013-04-25 09:21:00,43.0,40.0,30.29,WNW,287,0.0,0.0,90,0.00,,,0.25,,2013-04-25 13:21:00,
2013-04-25 09:32:00,44.0,40.0,30.29,WNW,295,0.0,0.0,85,0.00,,,0.25,,2013-04-25 13:32:00,
2013-04-25 09:42:00,44.0,40.0,30.29,WNW,295,0.0,0.0,85,0.00,,,0.25,,2013-04-25 13:42:00,
2013-04-25 09:53:00,45.0,40.0,30.29,WNW,302,0.0,0.0,81,0.00,,,0.25,,2013-04-25 13:53:00,
2013-04-25 10:02:00,46.0,38.0,30.28,WSW,245,0.0,0.0,73,0.00,,,0.25,,2013-04-25 14:02:00,
2013-04-25 10:11:00,46.0,38.0,30.28,WSW,245,0.0,0.0,73,0.00,,,0.25,,2013-04-25 14:11:00,
2013-04-25 10:21:00,47.0,39.0,30.29,NW,319,0.0,1.0,75,0.00,,,0.25,,2013-04-25 14:21:00,
2013-04-25 10:32:00,48.0,39.0,30.29,SW,235,0.0,0.0,70,0.00,,,0.25,,2013-04-25 14:32:00,
2013-04-25 10:42:00,48.0,39.0,30.29,SW,235,0.0,0.0,70,0.00,,,0.25,,2013-04-25 14:42:00,
2013-04-25 10:52:00,48.0,39.0,30.30,West,259,0.0,2.0,70,0.00,,,0.25,,2013-04-25 14:52:00,
2013-04-25 11:02:00,49.0,39.0,30.31,SSE,159,2.0,0.0,69,0.00,,,0.25,,2013-04-25 15:02:00,
2013-04-25 11:11:00,49.0,39.0,30.31,SSE,159,2.0,0.0,69,0.00,,,0.25,,2013-04-25 15:11:00,
2013-04-25 11:21:00,49.0,39.0,30.31,WSW,250,4.0,0.0,69,0.00,,,0.25,,2013-04-25 15:21:00,
2013-04-25 11:33:00,50.0,38.0,30.31,South,176,0.0,0.0,64,0.00,,,0.25,,2013-04-25 15:33:00,
2013-04-25 11:42:00,50.0,38.0,30.31,South,176,0.0,0.0,64,0.00,,,0.25,,2013-04-25 15:42:00,
2013-04-25 11:53:00,50.0,37.0,30.30,SSW,212,0.0,1.0,61,0.00,,,0.25,,2013-04-25 15:53:00,
2013-04-25 12:02:00,50.0,38.0,30.31,SW,217,0.0,3.0,62,0.00,,,0.25,,2013-04-25 16:02:00,
2013-04-25 12:13:00,50.0,38.0,30.31,SW,217,0.0,3.0,62,0.00,,,0.25,,2013-04-25 16:13:00,
2013-04-25 12:24:00,51.0,38.0,30.31,West,259,0.0,0.0,61,0.00,,,0.25,,2013-04-25 16:24:00,
2013-04-25 12:32:00,52.0,40.0,30.31,West,276,0.0,1.0,63,0.00,,,0.25,,2013-04-25 16:32:00,
2013-04-25 12:43:00,52.0,40.0,30.31,West,276,0.0,1.0,63,0.00,,,0.25,,2013-04-25 16:43:00,
2013-04-25 12:52:00,52.0,37.0,30.31,SW,226,0.0,2.0,56,0.00,,,0.25,,2013-04-25 16:52:00,
2013-04-25 13:02:00,54.0,36.0,30.30,West,259,3.0,3.0,51,0.00,,,0.25,,2013-04-25 17:02:00,
2013-04-25 13:11:00,54.0,36.0,30.30,West,259,3.0,3.0,51,0.00,,,0.25,,2013-04-25 17:11:00,
2013-04-25 13:22:00,54.0,35.0,30.30,SW,224,3.0,0.0,49,0.00,,,0.25,,2013-04-25 17:22:00,
2013-04-25 13:32:00,55.0,38.0,30.30,SW,219,1.0,3.0,53,0.00,,,0.25,,2013-04-25 17:32:00,
2013-04-25 13:42:00,55.0,38.0,30.30,SW,219,1.0,3.0,53,0.00,,,0.25,,2013-04-25 17:42:00,
2013-04-25 13:53:00,56.0,37.0,30.29,SSW,210,4.0,4.0,48,0.00,,,0.25,,2013-04-25 17:53:00,
2013-04-25 14:01:00,57.0,35.0,30.30,SSE,165,0.0,1.0,44,0.00,,,0.25,,2013-04-25 18:01:00,
2013-04-25 14:11:00,57.0,35.0,30.30,SSE,165,0.0,1.0,44,0.00,,,0.25,,2013-04-25 18:11:00,
2013-04-25 14:22:00,56.0,33.0,30.29,SW,231,0.0,0.0,42,0.00,,,0.25,,2013-04-25 18:22:00,
2013-04-25 14:32:00,57.0,31.0,30.29,SW,217,5.0,0.0,37,0.00,,,0.25,,2013-04-25 18:32:00,
2013-04-25 14:42:00,57.0,31.0,30.29,SW,217,5.0,0.0,37,0.00,,,0.25,,2013-04-25 18:42:00,
2013-04-25 14:53:00,58.0,34.0,30.29,NNE,31,1.0,6.0,41,0.00,,,0.25,,2013-04-25 18:53:00,
2013-04-25 15:01:00,58.0,30.0,30.29,WSW,250,2.0,2.0,34,0.00,,,0.25,,2013-04-25 19:01:00,
2013-04-25 15:12:00,58.0,30.0,30.29,WSW,250,2.0,2.0,34,0.00,,,0.25,,2013-04-25 19:12:00,
2013-04-25 15:21:00,59.0,33.0,30.29,South,183,5.0,5.0,37,0.00,,,0.25,,2013-04-25 19:21:00,
2013-04-25 15:31:00,59.0,33.0,30.28,SSE,159,3.0,3.0,38,0.00,,,0.25,,2013-04-25 19:31:00,
2013-04-25 15:42:00,59.0,33.0,30.28,SSE,159,3.0,3.0,38,0.00,,,0.25,,2013-04-25 19:42:00,
2013-04-25 15:52:00,60.0,34.0,30.27,ESE,108,0.0,0.0,38,0.00,,,0.25,,2013-04-25 19:52:00,
2013-04-25 16:02:00,59.0,33.0,30.27,West,260,2.0,2.0,37,0.00,,,0.25,,2013-04-25 20:02:00,
2013-04-25 16:11:00,59.0,33.0,30.27,West,260,2.0,2.0,37,0.00,,,0.25,,2013-04-25 20:11:00,
2013-04-25 16:22:00,60.0,28.0,30.27,West,277,3.0,3.0,30,0.00,,,0.25,,2013-04-25 20:22:00,
2013-04-25 16:32:00,60.0,31.0,30.27,SSW,205,2.0,4.0,33,0.00,,,0.25,,2013-04-25 20:32:00,
2013-04-25 16:42:00,60.0,31.0,30.27,SSW,205,2.0,4.0,33,0.00,,,0.25,,2013-04-25 20:42:00,
2013-04-25 16:52:00,59.0,31.0,30.27,SW,232,1.0,3.0,35,0.00,,,0.25,,2013-04-25 20:52:00,
2013-04-25 17:01:00,60.0,31.0,30.27,WSW,249,3.0,0.0,33,0.00,,,0.25,,2013-04-25 21:01:00,
2013-04-25 17:11:00,60.0,31.0,30.27,WSW,249,3.0,0.0,33,0.00,,,0.25,,2013-04-25 21:11:00,
2013-04-25 17:22:00,60.0,33.0,30.26,West,264,3.0,3.0,36,0.00,,,0.25,,2013-04-25 21:22:00,
2013-04-25 17:33:00,60.0,33.0,30.27,WNW,284,4.0,4.0,36,0.00,,,0.25,,2013-04-25 21:33:00,
2013-04-25 17:42:00,60.0,33.0,30.27,WNW,284,4.0,4.0,36,0.00,,,0.25,,2013-04-25 21:42:00,
2013-04-25 17:53:00,59.0,32.0,30.27,West,262,2.0,3.0,36,0.00,,,0.25,,2013-04-25 21:53:00,
2013-04-25 18:02:00,59.0,34.0,30.28,SW,225,0.0,0.0,39,0.00,,,0.25,,2013-04-25 22:02:00,
2013-04-25 18:12:00,59.0,34.0,30.28,SW,225,0.0,0.0,39,0.00,,,0.25,,2013-04-25 22:12:00,
2013-04-25 18:22:00,58.0,34.0,30.28,West,264,4.0,5.0,41,0.00,,,0.25,,2013-04-25 22:22:00,
2013-04-25 18:33:00,57.0,35.0,30.29,WNW,297,3.0,5.0,43,0.00,,,0.25,,2013-04-25 22:33:00,
2013-04-25 18:42:00,57.0,35.0,30.29,WNW,297,3.0,5.0,43,0.00,,,0.25,,2013-04-25 22:42:00,
2013-04-25 18:53:00,57.0,35.0,30.29,West,274,3.0,3.0,44,0.00,,,0.25,,2013-04-25 22:53:00,
2013-04-25 19:02:00,57.0,36.0,30.29,WNW,297,5.0,5.0,46,0.00,,,0.25,,2013-04-25 23:02:00,
2013-04-25 19:12:00,57.0,36.0,30.29,WNW,297,5.0,5.0,46,0.00,,,0.25,,2013-04-25 23:12:00,
2013-04-25 19:22:00,56.0,37.0,30.30,NW,308,0.0,1.0,48,0.00,,,0.25,,2013-04-25 23:22:00,
2013-04-25 19:32:00,55.0,36.0,30.30,WNW,290,0.0,0.0,49,0.00,,,0.25,,2013-04-25 23:32:00,
2013-04-25 19:42:00,55.0,36.0,30.30,WNW,290,0.0,0.0,49,0.00,,,0.25,,2013-04-25 23:42:00,
2013-04-25 19:52:00,55.0,38.0,30.30,WSW,239,0.0,0.0,52,0.00,,,0.25,,2013-04-25 23:52:00,
2013-04-25 20:01:00,54.0,37.0,30.30,WSW,239,0.0,0.0,53,0.00,,,0.25,,2013-04-26 00:01:00,
2013-04-25 20:11:00,54.0,37.0,30.30,WSW,239,0.0,0.0,53,0.00,,,0.25,,2013-04-26 00:11:00,
2013-04-25 20:21:00,54.0,37.0,30.30,WSW,239,0.0,0.0,53,0.00,,,0.25,,2013-04-26 00:21:00,
2013-04-25 20:32:00,53.0,37.0,30.30,WSW,239,0.0,0.0,54,0.00,,,0.25,,2013-04-26 00:32:00,
2013-04-25 20:41:00,53.0,37.0,30.30,WSW,239,0.0,0.0,54,0.00,,,0.25,,2013-04-26 00:41:00,
2013-04-25 20:52:00,53.0,37.0,30.30,WSW,239,0.0,0.0,55,0.00,,,0.25,,2013-04-26 00:52:00,
2013-04-25 21:01:00,52.0,37.0,30.30,WSW,239,0.0,0.0,56,0.00,,,0.25,,2013-04-26 01:01:00,
2013-04-25 21:11:00,52.0,37.0,30.30,WSW,239,0.0,0.0,56,0.00,,,0.25,,2013-04-26 01:11:00,
2013-04-25 21:21:00,51.0,37.0,30.30,WSW,239,0.0,0.0,58,0.00,,,0.25,,2013-04-26 01:21:00,
2013-04-25 21:32:00,50.0,36.0,30.31,WSW,239,0.0,0.0,59,0.00,,,0.25,,2013-04-26 01:32:00,
2013-04-25 21:42:00,50.0,36.0,30.31,WSW,239,0.0,0.0,59,0.00,,,0.25,,2013-04-26 01:42:00,
2013-04-25 21:52:00,50.0,37.0,30.31,WSW,239,0.0,0.0,60,0.00,,,0.25,,2013-04-26 01:52:00,
2013-04-25 22:02:00,49.0,37.0,30.31,WSW,239,0.0,0.0,62,0.00,,,0.25,,2013-04-26 02:02:00,
2013-04-25 22:11:00,49.0,37.0,30.31,WSW,239,0.0,0.0,62,0.00,,,0.25,,2013-04-26 02:11:00,
2013-04-25 22:21:00,49.0,37.0,30.32,WSW,239,0.0,0.0,63,0.00,,,0.25,,2013-04-26 02:21:00,
2013-04-25 22:32:00,49.0,37.0,30.33,WSW,239,0.0,0.0,63,0.00,,,0.25,,2013-04-26 02:32:00,
2013-04-25 22:42:00,49.0,37.0,30.33,WSW,239,0.0,0.0,63,0.00,,,0.25,,2013-04-26 02:42:00,
2013-04-25 22:51:00,48.0,36.0,30.33,WSW,239,0.0,0.0,64,0.00,,,0.25,,2013-04-26 02:51:00,
2013-04-25 23:01:00,48.0,37.0,30.33,WSW,239,0.0,0.0,66,0.00,,,0.25,,2013-04-26 03:01:00,
2013-04-25 23:11:00,48.0,37.0,30.33,WSW,239,0.0,0.0,66,0.00,,,0.25,,2013-04-26 03:11:00,
2013-04-25 23:22:00,47.0,37.0,30.33,WSW,239,0.0,0.0,67,0.00,,,0.25,,2013-04-26 03:22:00,
2013-04-25 23:33:00,47.0,37.0,30.33,WSW,239,0.0,0.0,67,0.00,,,0.25,,2013-04-26 03:33:00,
2013-04-25 23:43:00,47.0,37.0,30.33,WSW,239,0.0,0.0,67,0.00,,,0.25,,2013-04-26 03:43:00,
2013-04-25 23:53:00,47.0,37.0,30.33,WSW,239,0.0,0.0,68,0.00,,,0.25,,2013-04-26 03:53:00,